createdAt,value
2023-02-13T00:00:38.918Z,4.14
2023-02-13T00:03:06.286Z,4.13
2023-02-13T00:05:33.489Z,4.12
2023-02-13T00:08:00.649Z,4.13
2023-02-13T00:10:27.790Z,4.13
2023-02-13T00:12:54.962Z,4.12
2023-02-13T00:15:22.208Z,4.14
2023-02-13T00:17:49.302Z,4.12
2023-02-13T00:20:16.517Z,4.10
2023-02-13T00:22:43.586Z,4.10
2023-02-13T00:25:11.301Z,4.07
2023-02-13T00:27:38.412Z,4.06
2023-02-13T00:30:06.214Z,4.13
2023-02-13T00:32:33.223Z,4.21
2023-02-13T00:35:00.302Z,4.22
2023-02-13T00:37:27.587Z,4.29
2023-02-13T00:39:54.730Z,4.31
2023-02-13T00:42:26.404Z,4.32
2023-02-13T00:44:54.267Z,4.27
2023-02-13T00:47:21.698Z,4.29
2023-02-13T00:49:48.790Z,4.31
2023-02-13T00:52:15.833Z,4.38
2023-02-13T00:54:44.317Z,4.40
2023-02-13T00:57:13.018Z,4.41
2023-02-13T00:59:42.888Z,4.37
2023-02-13T01:02:10.040Z,4.38
2023-02-13T01:04:37.288Z,4.33
2023-02-13T01:07:04.547Z,4.34
2023-02-13T01:09:31.700Z,4.34
2023-02-13T01:11:58.842Z,4.31
2023-02-13T01:14:26.281Z,4.31
2023-02-13T01:16:53.348Z,4.30
2023-02-13T01:19:20.495Z,4.31
2023-02-13T01:21:47.601Z,4.28
2023-02-13T01:24:14.742Z,4.30
2023-02-13T01:26:41.831Z,4.25
2023-02-13T01:29:12.171Z,4.26
2023-02-13T01:31:40.251Z,4.28
2023-02-13T01:34:07.420Z,4.26
2023-02-13T01:36:34.744Z,4.24
2023-02-13T01:39:01.857Z,4.24
2023-02-13T01:41:29.243Z,4.25
2023-02-13T01:43:59.692Z,4.24
2023-02-13T01:46:40.521Z,4.22
2023-02-13T01:49:18.688Z,4.24
2023-02-13T01:51:49.514Z,4.22
2023-02-13T01:54:31.453Z,4.24
2023-02-13T01:57:07.959Z,4.22
2023-02-13T01:59:43.010Z,4.27
2023-02-13T02:02:10.635Z,4.22
2023-02-13T02:04:41.749Z,4.21
2023-02-13T02:07:20.201Z,4.20
2023-02-13T02:09:51.486Z,4.20
2023-02-13T02:12:25.031Z,4.20
2023-02-13T02:14:54.401Z,4.16
2023-02-13T02:17:24.940Z,4.18
2023-02-13T02:20:10.645Z,4.19
2023-02-13T02:22:52.924Z,4.17
2023-02-13T02:25:41.691Z,4.16
2023-02-13T02:28:16.184Z,4.17
2023-02-13T02:30:58.991Z,4.15
2023-02-13T02:33:37.951Z,4.15
2023-02-13T02:36:23.955Z,4.11
2023-02-13T02:39:27.584Z,4.14
2023-02-13T02:42:11.496Z,4.13
2023-02-13T02:44:46.859Z,4.11
2023-02-13T02:47:52.941Z,4.07
2023-02-13T02:50:27.531Z,4.07
2023-02-13T02:53:26.763Z,4.09
2023-02-13T02:55:58.593Z,4.09
2023-02-13T02:58:54.812Z,4.10
2023-02-13T03:01:46.985Z,4.08
2023-02-13T03:05:07.157Z,4.04
2023-02-13T03:07:34.264Z,4.04
2023-02-13T03:10:28.836Z,4.01
2023-02-13T03:13:21.716Z,4.03
2023-02-13T03:16:13.503Z,4.02
2023-02-13T03:19:03.412Z,4.01
2023-02-13T03:22:06.760Z,4.02
2023-02-13T03:25:02.460Z,3.97
2023-02-13T03:28:08.001Z,3.96
2023-02-13T03:30:49.781Z,3.96
2023-02-13T03:33:43.057Z,3.95
2023-02-13T03:36:55.161Z,3.97
2023-02-13T03:39:29.610Z,4.01
2023-02-13T03:42:35.673Z,3.97
2023-02-13T03:45:31.697Z,3.95
2023-02-13T03:48:09.781Z,3.91
2023-02-13T03:50:41.571Z,3.92
2023-02-13T03:53:14.014Z,3.92
2023-02-13T03:56:03.738Z,3.89
2023-02-13T03:58:58.578Z,3.94
2023-02-13T04:01:28.781Z,3.90
2023-02-13T04:04:15.534Z,3.89
2023-02-13T04:07:29.397Z,3.89
2023-02-13T04:09:59.396Z,3.86
2023-02-13T04:12:46.347Z,3.87
2023-02-13T04:15:22.152Z,3.88
2023-02-13T04:17:55.340Z,3.86
2023-02-13T04:20:22.528Z,3.82
2023-02-13T04:22:49.670Z,3.84
2023-02-13T04:25:17.688Z,3.85
2023-02-13T04:27:44.835Z,3.83
2023-02-13T04:30:12.661Z,3.85
2023-02-13T04:32:39.777Z,3.81
2023-02-13T04:35:06.890Z,3.81
2023-02-13T04:37:33.974Z,3.81
2023-02-13T04:40:01.037Z,3.78
2023-02-13T04:42:28.116Z,3.75
2023-02-13T04:44:55.194Z,3.76
2023-02-13T04:47:22.268Z,3.77
2023-02-13T04:49:49.345Z,3.75
2023-02-13T04:52:16.427Z,3.73
2023-02-13T04:54:43.618Z,3.73
2023-02-13T04:57:10.713Z,3.73
2023-02-13T04:59:37.869Z,3.73
2023-02-13T05:02:05.111Z,3.75
2023-02-13T05:04:32.347Z,3.73
2023-02-13T05:06:59.529Z,3.72
2023-02-13T05:09:26.753Z,3.70
2023-02-13T05:11:54.290Z,3.68
2023-02-13T05:14:21.823Z,3.67
2023-02-13T05:16:49.845Z,3.70
2023-02-13T05:19:17.097Z,3.70
2023-02-13T05:22:02.583Z,3.70
2023-02-13T05:24:29.679Z,3.71
2023-02-13T05:26:56.785Z,3.69
2023-02-13T05:29:23.963Z,3.66
2023-02-13T05:31:53.705Z,3.66
2023-02-13T05:34:22.375Z,3.65
2023-02-13T05:36:50.159Z,3.65
2023-02-13T05:39:17.294Z,3.66
2023-02-13T05:41:45.775Z,3.63
2023-02-13T05:44:13.905Z,3.63
2023-02-13T05:46:42.360Z,3.64
2023-02-13T05:49:11.157Z,3.62
2023-02-13T05:51:38.298Z,3.62
2023-02-13T05:54:05.453Z,3.58
2023-02-13T05:56:32.503Z,3.60
2023-02-13T05:58:59.649Z,3.60
2023-02-13T06:01:26.800Z,3.57
2023-02-13T06:03:54.052Z,3.58
2023-02-13T06:06:22.794Z,3.57
2023-02-13T06:08:49.921Z,3.57
2023-02-13T06:11:17.057Z,3.57
2023-02-13T06:13:44.681Z,3.57
2023-02-13T06:16:12.866Z,3.55
2023-02-13T06:18:40.505Z,3.54
2023-02-13T06:21:08.291Z,3.53
2023-02-13T06:23:35.390Z,3.54
2023-02-13T06:26:05.000Z,3.56
2023-02-13T06:28:32.742Z,3.52
2023-02-13T06:31:00.246Z,3.52
2023-02-13T06:33:27.518Z,3.53
2023-02-13T06:35:54.667Z,3.52
2023-02-13T06:38:21.865Z,3.54
2023-02-13T06:40:49.849Z,3.53
2023-02-13T06:43:18.034Z,3.53
2023-02-13T06:45:47.072Z,3.54
2023-02-13T06:48:14.657Z,3.53
2023-02-13T06:50:41.803Z,3.54
2023-02-13T06:53:08.973Z,3.55
2023-02-13T06:55:36.975Z,3.53
2023-02-13T06:58:04.328Z,3.55
2023-02-13T07:00:31.913Z,3.55
2023-02-13T07:03:05.364Z,3.55
2023-02-13T07:05:33.247Z,3.54
2023-02-13T07:08:00.314Z,3.53
2023-02-13T07:10:27.966Z,3.52
2023-02-13T07:13:05.222Z,3.54
2023-02-13T07:15:34.104Z,3.54
2023-02-13T07:18:01.519Z,3.51
2023-02-13T07:20:28.999Z,3.50
2023-02-13T07:23:04.612Z,3.51
2023-02-13T07:25:32.255Z,3.49
2023-02-13T07:28:04.520Z,3.48
2023-02-13T07:30:36.010Z,3.53
2023-02-13T07:33:04.489Z,3.49
2023-02-13T07:35:32.410Z,3.49
2023-02-13T07:38:03.286Z,3.48
2023-02-13T07:40:30.771Z,3.47
2023-02-13T07:43:01.030Z,3.49
2023-02-13T07:45:28.169Z,3.46
2023-02-13T07:48:00.010Z,3.46
2023-02-13T07:50:30.229Z,3.45
2023-02-13T07:52:59.505Z,3.46
2023-02-13T07:55:29.837Z,3.47
2023-02-13T07:57:57.161Z,3.48
2023-02-13T08:00:25.470Z,3.46
2023-02-13T08:02:52.611Z,3.45
2023-02-13T08:05:22.923Z,3.47
2023-02-13T08:07:50.111Z,3.48
2023-02-13T08:10:35.855Z,3.48
2023-02-13T08:13:03.271Z,3.50
2023-02-13T08:15:30.673Z,3.50
2023-02-13T08:17:57.994Z,3.53
2023-02-13T08:20:25.235Z,3.55
2023-02-13T08:22:52.513Z,3.58
2023-02-13T08:25:19.898Z,3.60
2023-02-13T08:27:47.284Z,3.57
2023-02-13T08:30:15.456Z,3.57
2023-02-13T08:32:54.009Z,3.58
2023-02-13T08:35:22.980Z,3.58
2023-02-13T08:37:50.186Z,3.62
2023-02-13T08:40:17.614Z,3.62
2023-02-13T08:42:44.732Z,3.64
2023-02-13T08:45:12.078Z,3.69
2023-02-13T08:47:40.022Z,3.67
2023-02-13T08:50:08.050Z,3.68
2023-02-13T08:52:35.501Z,3.67
2023-02-13T08:55:03.679Z,3.70
2023-02-13T08:57:31.534Z,3.73
2023-02-13T08:59:58.848Z,3.78
2023-02-13T09:02:25.987Z,3.81
2023-02-13T09:04:53.210Z,3.82
2023-02-13T09:07:20.461Z,3.91
2023-02-13T09:09:47.716Z,3.94
2023-02-13T09:12:14.828Z,3.89
2023-02-13T09:14:41.997Z,3.90
2023-02-13T09:17:09.115Z,3.91
2023-02-13T09:19:36.257Z,3.96
2023-02-13T09:22:03.500Z,4.05
2023-02-13T09:24:30.643Z,4.11
2023-02-13T09:26:57.789Z,4.14
2023-02-13T09:29:25.040Z,4.26
2023-02-13T09:31:52.949Z,4.27
2023-02-13T09:34:20.406Z,4.34
2023-02-13T09:36:52.177Z,4.45
2023-02-13T09:39:19.675Z,4.54
2023-02-13T09:41:51.351Z,4.50
2023-02-13T09:44:34.249Z,4.54
2023-02-13T09:47:28.421Z,4.59
2023-02-13T09:50:12.303Z,4.71
2023-02-13T09:52:41.244Z,4.69
2023-02-13T09:55:37.326Z,4.64
2023-02-13T09:58:20.721Z,4.88
2023-02-13T10:00:53.824Z,4.95
2023-02-13T10:03:30.180Z,5.02
2023-02-13T10:06:00.703Z,4.92
2023-02-13T10:08:49.142Z,4.93
2023-02-13T10:11:37.127Z,4.88
2023-02-13T10:14:16.710Z,4.96
2023-02-13T10:16:52.502Z,4.74
2023-02-13T10:19:40.871Z,4.89
2023-02-13T10:22:17.735Z,4.86
2023-02-13T10:24:54.488Z,4.88
2023-02-13T10:27:28.305Z,5.11
2023-02-13T10:30:09.242Z,5.36
2023-02-13T10:33:16.310Z,5.34
2023-02-13T10:35:50.294Z,5.25
2023-02-13T10:38:20.460Z,5.29
2023-02-13T10:41:12.575Z,5.28
2023-02-13T10:44:15.229Z,5.26
2023-02-13T10:47:00.522Z,5.46
2023-02-13T10:49:47.046Z,5.62
2023-02-13T10:52:35.705Z,5.64
2023-02-13T10:55:20.626Z,5.58
2023-02-13T10:58:06.333Z,5.45
2023-02-13T11:00:50.904Z,5.36
2023-02-13T11:03:26.617Z,5.44
2023-02-13T11:05:55.292Z,5.30
2023-02-13T11:08:25.552Z,5.24
2023-02-13T11:10:53.273Z,5.24
2023-02-13T11:13:27.782Z,5.27
2023-02-13T11:16:27.489Z,5.17
2023-02-13T11:18:54.643Z,5.21
2023-02-13T11:21:39.204Z,5.20
2023-02-13T11:24:21.507Z,5.25
2023-02-13T11:26:57.655Z,5.27
2023-02-13T11:29:33.297Z,5.24
2023-02-13T11:32:22.343Z,5.21
2023-02-13T11:34:54.773Z,5.15
2023-02-13T11:37:29.115Z,5.22
2023-02-13T11:39:58.598Z,5.28
2023-02-13T11:42:50.576Z,5.37
2023-02-13T11:45:25.620Z,5.40
2023-02-13T11:47:56.107Z,5.49
2023-02-13T11:50:35.436Z,5.45
2023-02-13T11:53:07.841Z,5.28
2023-02-13T11:55:43.087Z,5.27
2023-02-13T11:58:12.747Z,5.23
2023-02-13T12:00:41.686Z,5.22
2023-02-13T12:03:25.710Z,5.19
2023-02-13T12:06:12.305Z,5.27
2023-02-13T12:08:50.096Z,5.33
2023-02-13T12:11:28.645Z,5.37
2023-02-13T12:13:56.085Z,5.38
2023-02-13T12:16:38.484Z,5.35
2023-02-13T12:19:14.351Z,5.43
2023-02-13T12:21:47.727Z,5.38
2023-02-13T12:24:42.744Z,5.28
2023-02-13T12:27:15.276Z,5.29
2023-02-13T12:29:58.530Z,5.31
2023-02-13T12:32:49.724Z,5.42
2023-02-13T12:36:04.906Z,5.55
2023-02-13T12:39:16.065Z,5.70
2023-02-13T12:41:55.524Z,5.74
2023-02-13T12:44:53.609Z,5.59
2023-02-13T12:47:42.154Z,5.58
2023-02-13T12:50:30.072Z,5.57
2023-02-13T12:53:23.301Z,5.75
2023-02-13T12:56:20.878Z,5.84
2023-02-13T12:59:04.099Z,5.66
2023-02-13T13:01:51.493Z,5.83
2023-02-13T13:05:03.174Z,5.87
2023-02-13T13:07:39.668Z,5.62
2023-02-13T13:10:06.804Z,5.45
2023-02-13T13:12:54.982Z,5.46
2023-02-13T13:16:06.415Z,5.52
2023-02-13T13:18:42.866Z,5.46
2023-02-13T13:21:31.978Z,5.50
2023-02-13T13:24:24.934Z,5.51
2023-02-13T13:27:01.292Z,5.51
2023-02-13T13:29:50.008Z,5.56
2023-02-13T13:32:26.698Z,5.58
2023-02-13T13:34:55.552Z,5.62
2023-02-13T13:38:03.485Z,5.53
2023-02-13T13:40:52.980Z,5.41
2023-02-13T13:46:59.377Z,5.18
2023-02-13T13:49:53.957Z,5.20
2023-02-13T13:52:30.662Z,5.11
2023-02-13T13:55:05.392Z,5.18
2023-02-13T13:57:34.158Z,5.16
2023-02-13T14:00:14.152Z,5.04
2023-02-13T14:03:22.436Z,5.01
2023-02-13T14:06:11.076Z,4.96
2023-02-13T14:08:41.178Z,4.90
2023-02-13T14:11:31.365Z,4.83
2023-02-13T14:14:02.602Z,4.70
2023-02-13T14:16:49.018Z,4.66
2023-02-13T14:19:35.961Z,4.60
2023-02-13T14:22:24.954Z,4.58
2023-02-13T14:24:59.667Z,4.58
2023-02-13T14:27:33.049Z,4.58
2023-02-13T14:30:01.441Z,4.54
2023-02-13T14:32:32.880Z,4.52
2023-02-13T14:35:04.636Z,4.52
2023-02-13T14:37:39.089Z,4.54
2023-02-13T14:40:18.370Z,4.67
2023-02-13T14:42:51.848Z,4.66
2023-02-13T14:45:23.353Z,4.59
2023-02-13T14:47:55.514Z,4.54
2023-02-13T14:50:28.021Z,4.53
2023-02-13T14:53:01.939Z,4.49
2023-02-13T14:55:40.380Z,4.48
2023-02-13T14:58:33.764Z,4.38
2023-02-13T15:01:04.523Z,4.33
2023-02-13T15:03:39.329Z,4.30
2023-02-13T15:06:16.634Z,4.24
2023-02-13T15:08:53.954Z,4.20
2023-02-13T15:11:43.041Z,4.16
2023-02-13T15:14:40.054Z,4.14
2023-02-13T15:17:22.328Z,4.09
2023-02-13T15:19:52.952Z,4.09
2023-02-13T15:22:46.106Z,4.06
2023-02-13T15:25:37.132Z,4.06
2023-02-13T15:28:11.306Z,4.06
2023-02-13T15:30:44.673Z,3.97
2023-02-13T15:33:23.051Z,3.99
2023-02-13T15:35:58.339Z,3.98
2023-02-13T15:38:26.498Z,3.95
2023-02-13T15:41:05.022Z,3.96
2023-02-13T15:43:42.528Z,3.93
2023-02-13T15:46:27.042Z,3.90
2023-02-13T15:49:17.292Z,3.88
2023-02-13T15:51:54.478Z,3.84
2023-02-13T15:54:56.126Z,3.88
2023-02-13T15:57:34.003Z,3.92
2023-02-13T16:02:58.208Z,3.82
2023-02-13T16:05:39.925Z,3.80
2023-02-13T16:08:40.143Z,3.76
2023-02-13T16:11:30.392Z,3.73
2023-02-13T16:14:00.151Z,3.69
2023-02-13T16:16:33.616Z,3.64
2023-02-13T16:19:01.065Z,3.62
2023-02-13T16:21:39.742Z,3.63
2023-02-13T16:24:09.180Z,3.60
2023-02-13T16:26:41.858Z,3.60
2023-02-13T16:29:14.138Z,3.57
2023-02-13T16:31:44.641Z,3.57
2023-02-13T16:34:29.018Z,3.57
2023-02-13T16:36:57.114Z,3.55
2023-02-13T16:39:31.544Z,3.55
2023-02-13T16:42:00.568Z,3.55
2023-02-13T16:44:32.947Z,3.56
2023-02-13T16:47:02.898Z,3.55
2023-02-13T16:49:38.677Z,3.57
2023-02-13T16:52:20.016Z,3.56
2023-02-13T16:54:58.146Z,3.55
2023-02-13T16:57:33.876Z,3.55
2023-02-13T17:00:06.600Z,3.50
2023-02-13T17:02:37.029Z,3.50
2023-02-13T17:05:10.100Z,3.48
2023-02-13T17:07:49.297Z,3.46
2023-02-13T17:10:28.987Z,3.48
2023-02-13T17:13:00.256Z,3.51
2023-02-13T17:15:29.871Z,3.47
2023-02-13T17:17:57.174Z,3.47
2023-02-13T17:20:27.889Z,3.48
2023-02-13T17:23:00.951Z,3.45
2023-02-13T17:25:30.688Z,3.45
2023-02-13T17:28:01.395Z,3.43
2023-02-13T17:30:31.712Z,3.43
2023-02-13T17:33:02.955Z,3.41
2023-02-13T17:35:30.526Z,3.40
2023-02-13T17:38:06.276Z,3.36
2023-02-13T17:40:33.983Z,3.36
2023-02-13T17:43:04.357Z,3.36
2023-02-13T17:45:33.974Z,3.37
2023-02-13T17:48:06.163Z,3.38
2023-02-13T17:50:34.997Z,3.39
2023-02-13T17:53:07.556Z,3.45
2023-02-13T17:55:35.713Z,3.38
2023-02-13T17:58:05.259Z,3.33
2023-02-13T18:00:35.435Z,3.30
2023-02-13T18:03:06.448Z,3.29
2023-02-13T18:05:33.928Z,3.31
2023-02-13T18:08:05.772Z,3.35
2023-02-13T18:10:35.273Z,3.40
2023-02-13T18:13:11.622Z,3.40
2023-02-13T18:15:44.452Z,3.37
2023-02-13T18:18:13.457Z,3.35
2023-02-13T18:20:40.628Z,3.33
2023-02-13T18:23:08.389Z,3.33
2023-02-13T18:25:35.958Z,3.29
2023-02-13T18:28:03.285Z,3.30
2023-02-13T18:30:30.611Z,3.28
2023-02-13T18:32:59.246Z,3.37
2023-02-13T18:35:26.695Z,3.28
2023-02-13T18:37:54.104Z,3.21
2023-02-13T18:40:22.530Z,3.19
2023-02-13T18:42:51.138Z,3.19
2023-02-13T18:45:18.506Z,3.15
2023-02-13T18:47:48.641Z,3.16
2023-02-13T18:50:15.822Z,3.16
2023-02-13T18:52:43.123Z,3.15
2023-02-13T18:55:10.403Z,3.17
2023-02-13T18:57:37.768Z,3.17
2023-02-13T19:00:05.876Z,3.16
2023-02-13T19:02:33.517Z,3.16
2023-02-13T19:05:01.480Z,3.16
2023-02-13T19:07:32.664Z,3.15
2023-02-13T19:10:06.964Z,3.17
2023-02-13T19:12:34.993Z,3.17
2023-02-13T19:15:05.115Z,3.20
2023-02-13T19:17:35.625Z,3.15
2023-02-13T19:20:04.885Z,3.11
2023-02-13T19:22:32.857Z,3.10
2023-02-13T19:25:01.664Z,3.14
2023-02-13T19:27:32.921Z,3.12
2023-02-13T19:30:00.234Z,3.12
2023-02-13T19:32:27.636Z,3.14
2023-02-13T19:34:55.015Z,3.12
2023-02-13T19:37:22.364Z,3.12
2023-02-13T19:39:51.590Z,3.14
2023-02-13T19:42:18.743Z,3.24
2023-02-13T19:44:47.711Z,3.26
2023-02-13T19:47:16.052Z,3.34
2023-02-13T19:49:43.687Z,3.42
2023-02-13T19:52:12.511Z,3.41
2023-02-13T19:54:40.166Z,3.35
2023-02-13T19:57:09.216Z,3.39
2023-02-13T19:59:37.398Z,3.35
2023-02-13T20:02:05.041Z,3.38
2023-02-13T20:04:36.896Z,3.33
2023-02-13T20:07:05.818Z,3.31
2023-02-13T20:09:35.146Z,3.30
2023-02-13T20:12:02.898Z,3.32
2023-02-13T20:14:31.578Z,3.26
2023-02-13T20:16:58.776Z,3.18
2023-02-13T20:19:28.343Z,3.14
2023-02-13T20:21:55.658Z,3.16
2023-02-13T20:24:25.360Z,3.14
2023-02-13T20:26:52.913Z,3.12
2023-02-13T20:29:21.065Z,3.12
2023-02-13T20:31:49.535Z,3.14
2023-02-13T20:34:16.689Z,3.13
2023-02-13T20:36:43.987Z,3.17
2023-02-13T20:39:11.483Z,3.15
2023-02-13T20:41:38.885Z,3.17
2023-02-13T20:44:10.628Z,3.13
2023-02-13T20:46:40.483Z,3.08
2023-02-13T20:49:08.499Z,3.08
2023-02-13T20:51:36.190Z,3.09
2023-02-13T20:54:03.578Z,3.10
2023-02-13T20:56:30.952Z,3.13
2023-02-13T20:58:59.932Z,3.17
2023-02-13T21:01:32.958Z,3.15
2023-02-13T21:04:00.578Z,3.13
2023-02-13T21:06:32.910Z,3.14
2023-02-13T21:09:00.596Z,3.10
2023-02-13T21:11:31.254Z,3.08
2023-02-13T21:13:58.742Z,3.06
2023-02-13T21:16:28.821Z,3.13
2023-02-13T21:18:58.731Z,3.14
2023-02-13T21:21:28.801Z,3.13
2023-02-13T21:23:57.452Z,3.13
2023-02-13T21:26:26.510Z,3.18
2023-02-13T21:28:54.707Z,3.14
2023-02-13T21:31:25.538Z,3.09
2023-02-13T21:33:52.797Z,3.04
2023-02-13T21:36:20.037Z,3.20
2023-02-13T21:38:47.238Z,3.15
2023-02-13T21:41:18.371Z,3.13
2023-02-13T21:43:47.046Z,3.13
2023-02-13T21:46:17.080Z,3.12
2023-02-13T21:48:46.184Z,3.06
2023-02-13T21:51:19.118Z,3.03
2023-02-13T21:53:49.434Z,3.03
2023-02-13T21:56:26.686Z,3.05
2023-02-13T21:58:54.361Z,3.07
2023-02-13T22:01:26.987Z,3.09
2023-02-13T22:03:59.078Z,3.05
2023-02-13T22:06:28.937Z,3.05
2023-02-13T22:09:05.515Z,3.15
2023-02-13T22:11:33.065Z,3.20
2023-02-13T22:14:03.047Z,3.17
2023-02-13T22:16:32.234Z,3.20
2023-02-13T22:19:00.604Z,3.14
2023-02-13T22:21:30.146Z,3.16
2023-02-13T22:23:57.613Z,3.09
2023-02-13T22:26:27.397Z,3.11
2023-02-13T22:28:56.191Z,3.15
2023-02-13T22:31:25.585Z,3.14
2023-02-13T22:34:03.503Z,3.13
2023-02-13T22:36:40.244Z,3.13
2023-02-13T22:39:09.348Z,3.09
2023-02-13T22:41:36.697Z,3.10
2023-02-13T22:44:06.458Z,3.11
2023-02-13T22:46:36.161Z,3.09
2023-02-13T22:49:03.742Z,3.07
2023-02-13T22:51:33.586Z,3.08
2023-02-13T22:54:01.374Z,3.08
2023-02-13T22:56:30.699Z,3.10
2023-02-13T22:58:58.528Z,3.16
2023-02-13T23:01:26.479Z,3.15
2023-02-13T23:03:53.956Z,3.13
2023-02-13T23:06:22.096Z,3.15
2023-02-13T23:08:52.725Z,3.20
2023-02-13T23:11:41.191Z,3.21
2023-02-13T23:14:12.800Z,3.19
2023-02-13T23:16:59.380Z,3.18
2023-02-13T23:19:29.922Z,3.19
2023-02-13T23:21:57.628Z,3.23
2023-02-13T23:24:26.174Z,3.27
2023-02-13T23:26:54.729Z,3.24
2023-02-13T23:29:22.633Z,3.26
2023-02-13T23:31:52.125Z,3.23
2023-02-13T23:34:19.607Z,3.23
2023-02-13T23:36:46.934Z,3.22
2023-02-13T23:39:14.133Z,3.22
2023-02-13T23:41:41.357Z,3.18
2023-02-13T23:44:08.492Z,3.22
2023-02-13T23:46:35.650Z,3.26
2023-02-13T23:49:02.875Z,3.21
2023-02-13T23:51:29.943Z,3.19
2023-02-13T23:53:57.432Z,3.21
2023-02-13T23:56:25.521Z,3.21
2023-02-13T23:58:55.614Z,3.19
